Fesco Vladimir — 5BSL2 — position and weather

sailwx.info

Track history (hours):
 
Tides and Currents Weather Stations Pressure Air Temp Water Temp Dewpoint Dewpoint Depression Visibility Wind Speed Wind Dir Waves Ship Positions

Fesco Vladimir

Last reported at 2017-Jan-20 11:33 UTC. Time now 2017-Jan-20 11:52 UTC.
Position N 52°59' E 004°03'.

Length 184 m; draft 10.2 m.

Type: Ship (hazmat cat A). MMSI: 209777000.

Date/timePositionNaut miles runAvg speedWind from/ knotsBaromVisibWave heightAir tempDewpointWater temp
2017-Jan-20 11:33N 52°59' E 004°03'1514.8
2017-Jan-20 10:34N 53°08' E 004°22'1413.5
2017-Jan-20 09:33N 53°21' E 004°31'1313.3
2017-Jan-20 08:33N 53°33' E 004°38'1413.9
2017-Jan-20 07:33N 53°47' E 004°46'1414.3
2017-Jan-20 06:33N 53°60' E 004°54'1514.8
2017-Jan-20 05:34N 54°14' E 005°04'28114.8
2017-Jan-19 10:33N 57°48' E 010°27'1312.9
2017-Jan-19 09:33N 57°45' E 010°50'1414.1
2017-Jan-19 08:33N 57°36' E 011°10'1414.4
2017-Jan-19 07:33N 57°25' E 011°28'1514.6
2017-Jan-19 06:33N 57°11' E 011°37'1715.1
2017-Jan-19 05:24N 56°55' E 011°47'1214.5
2017-Jan-19 04:33N 56°43' E 011°51'4715.6
2017-Jan-19 01:32N 56°03' E 011°07'4213.9
2017-Jan-18 22:32N 55°21' E 011°02'1515.1
2017-Jan-18 21:33N 55°06' E 011°03'1615.5
2017-Jan-18 20:33N 54°52' E 010°53'1413.8
2017-Jan-18 19:33N 54°39' E 011°02'1616.1
2017-Jan-18 18:33N 54°32' E 011°27'1616.3
2017-Jan-18 17:33N 54°26' E 011°53'1413.5
2017-Jan-18 16:33N 54°32' E 012°14'1515.3
2017-Jan-18 15:33N 54°43' E 012°31'3515.7
2017-Jan-18 13:19N 54°57' E 013°28'1215.8
2017-Jan-18 12:33N 55°01' E 013°47'1514.9
2017-Jan-18 11:33N 55°08' E 014°10'1616.1
2017-Jan-18 10:33N 55°20' E 014°28'1615.6
2017-Jan-18 09:33N 55°31' E 014°49'1615.9
2017-Jan-18 08:33N 55°39' E 015°13'33914.6
2017-Jan-17 09:23N 59°33' E 022°51'1315.5
2017-Jan-17 08:33N 59°36' E 023°16'1615.9
2017-Jan-17 07:34N 59°41' E 023°46'1615.6
2017-Jan-17 06:33N 59°46' E 024°15'6315.5
2017-Jan-17 02:29N 59°59' E 026°18'1415.2
2017-Jan-17 01:34N 60°01' E 026°46'1514.6
2017-Jan-17 00:33N 60°03' E 027°15'1615.7
2017-Jan-16 23:34N 60°11' E 027°42'1515.1
2017-Jan-16 22:33N 60°09' E 028°12'1414.5
2017-Jan-16 21:34N 60°03' E 028°38'1312.9
2017-Jan-16 20:33N 60°02' E 029°04'1413.5
2017-Jan-16 19:33N 60°01' E 029°31'7 7.2
2017-Jan-16 18:33N 59°59' E 029°45'3 2.6
2017-Jan-16 17:31N 59°56' E 029°42'0 0.0
2017-Jan-16 16:31N 59°56' E 029°42'0 0.0
2017-Jan-16 15:31N 59°56' E 029°42'0 0.0
2017-Jan-16 14:31N 59°56' E 029°42'0 0.0
2017-Jan-16 13:31N 59°56' E 029°42'0 0.0
2017-Jan-16 12:31N 59°56' E 029°42'0 0.0
2017-Jan-16 11:31N 59°56' E 029°42'0 0.0
2017-Jan-16 10:31N 59°56' E 029°42'0 0.0
2017-Jan-16 09:31N 59°56' E 029°42'0 0.0
2017-Jan-16 08:31N 59°56' E 029°42'0 0.0
2017-Jan-16 07:31N 59°56' E 029°42'0 0.0
2017-Jan-16 06:31N 59°56' E 029°42'0 0.0
2017-Jan-16 05:31N 59°56' E 029°42'0 0.0
2017-Jan-16 04:31N 59°56' E 029°42'0 0.0
2017-Jan-16 03:31N 59°56' E 029°42'0 0.0
2017-Jan-16 02:31N 59°56' E 029°42'0 0.0
2017-Jan-16 01:32N 59°56' E 029°42'0 0.0
2017-Jan-16 00:33N 59°56' E 029°42'1 1.4
2017-Jan-15 23:33N 59°57' E 029°44'2 1.9
2017-Jan-15 22:33N 59°58' E 029°47'1111.0
2017-Jan-15 21:34N 59°54' E 030°08'3 2.8
2017-Jan-15 20:32N 59°52' E 030°12'0 0.0
2017-Jan-15 19:32N 59°52' E 030°12'0 0.0
2017-Jan-15 18:32N 59°52' E 030°12'0 0.0
2017-Jan-15 17:29N 59°52' E 030°12'0 0.0
2017-Jan-15 16:32N 59°52' E 030°12'0 0.0
2017-Jan-15 15:32N 59°52' E 030°12'0 0.0
2017-Jan-15 14:32N 59°52' E 030°12'0 0.0
2017-Jan-15 13:32N 59°52' E 030°12'0 0.0
2017-Jan-15 12:32N 59°52' E 030°12'0 0.0
2017-Jan-15 11:32N 59°52' E 030°12'0 0.0
2017-Jan-15 10:32N 59°52' E 030°12'0 0.0
2017-Jan-15 09:32N 59°52' E 030°12'0 0.0
2017-Jan-15 08:32N 59°52' E 030°12'1 0.8
2017-Jan-15 07:33N 59°53' E 030°11'0 0.0
2017-Jan-15 06:30N 59°53' E 030°11'0 0.0
2017-Jan-15 05:33N 59°53' E 030°11'0 0.0
2017-Jan-15 04:33N 59°53' E 030°11'0 0.0
2017-Jan-15 03:33N 59°53' E 030°11'0 0.0
2017-Jan-15 02:33N 59°53' E 030°11'0 0.0
2017-Jan-15 01:33N 59°53' E 030°11'0 0.0
2017-Jan-15 00:33N 59°53' E 030°11'0 0.0
2017-Jan-14 23:33N 59°53' E 030°11'0 0.0
2017-Jan-14 22:33N 59°53' E 030°11'0 0.0
2017-Jan-14 21:33N 59°53' E 030°11'0 0.0
2017-Jan-14 20:33N 59°53' E 030°11'0 0.0
2017-Jan-14 19:33N 59°53' E 030°11'0 0.0
2017-Jan-14 18:33N 59°53' E 030°11'0 0.0
2017-Jan-14 17:33N 59°53' E 030°11'0 0.0
2017-Jan-14 16:33N 59°53' E 030°11'0 0.0
2017-Jan-14 15:33N 59°53' E 030°11'0 0.0
2017-Jan-14 14:33N 59°53' E 030°11'0 0.0
2017-Jan-14 13:33N 59°53' E 030°11'0 0.0
2017-Jan-14 12:33N 59°53' E 030°11'0 0.0
2017-Jan-14 11:33N 59°53' E 030°11'0 0.0
2017-Jan-14 10:33N 59°53' E 030°11'0 0.0
2017-Jan-14 09:33N 59°53' E 030°11'0 0.0
2017-Jan-14 08:33N 59°53' E 030°11'0 0.0
2017-Jan-14 07:33N 59°53' E 030°11'0 0.0
2017-Jan-14 06:33N 59°53' E 030°11'5 4.8
2017-Jan-14 05:33N 59°55' E 030°03'10 9.8
2017-Jan-14 04:33N 59°59' E 029°45'7 6.4
2017-Jan-14 03:31N 60°01' E 029°32'21 5.2
2017-Jan-13 23:33N 60°02' E 028°51'9 8.6
2017-Jan-13 22:33N 59°58' E 028°35'1212.5
2017-Jan-13 21:33N 59°47' E 028°25'6 6.1
2017-Jan-13 20:32N 59°40' E 028°24'0 0.0
2017-Jan-13 19:32N 59°40' E 028°24'0 0.0
2017-Jan-13 18:32N 59°40' E 028°24'0 0.0
2017-Jan-13 17:32N 59°40' E 028°24'0 0.0
2017-Jan-13 16:32N 59°40' E 028°24'0 0.0
2017-Jan-13 15:32N 59°40' E 028°24'0 0.0
2017-Jan-13 14:32N 59°40' E 028°24'0 0.0
2017-Jan-13 13:32N 59°40' E 028°24'0 0.4
2017-Jan-13 12:33N 59°41' E 028°24'11 8.1
2017-Jan-13 11:12N 59°52' E 028°27'610.0
2017-Jan-13 10:33N 59°57' E 028°34'10 9.6
2017-Jan-13 09:33N 60°04' E 028°22'1212.2
2017-Jan-13 08:33N 60°09' E 027°59'1111.4
2017-Jan-13 07:33N 60°08' E 027°36'1211.8
2017-Jan-13 06:33N 60°01' E 027°16'1212.0
2017-Jan-13 05:33N 59°59' E 026°53'1413.9
2017-Jan-13 04:33N 59°58' E 026°25'7314.1
2017-Jan-12 23:23N 59°40' E 024°05'1214.1
2017-Jan-12 22:33N 59°36' E 023°43'1414.0
2017-Jan-12 21:33N 59°31' E 023°17'1613.7
2017-Jan-12 20:24N 59°26' E 022°47'34514.3
2017-Jan-11 20:14N 55°30' E 015°01'1015.2
2017-Jan-11 19:34N 55°25' E 014°46'1514.7
2017-Jan-11 18:34N 55°14' E 014°28'1514.6
2017-Jan-11 17:33N 55°02' E 014°12'7214.4
2017-Jan-11 12:33N 54°33' E 012°18'1211.8
2017-Jan-11 11:33N 54°25' E 012°04'1611.9
2017-Jan-11 10:11N 54°28' E 011°37'711.3
2017-Jan-11 09:33N 54°31' E 011°26'1211.7
2017-Jan-11 08:33N 54°35' E 011°07'1313.3
2017-Jan-11 07:33N 54°34' E 010°44'46 6.3
2017-Jan-11 00:16N 54°13' E 009°35'5 6.6
2017-Jan-10 23:32N 54°11' E 009°28'7 6.0
2017-Jan-10 22:23N 54°06' E 009°20'3 4.2
2017-Jan-10 21:33N 54°02' E 009°18'4 3.5
2017-Jan-10 20:34N 53°59' E 009°17'5 5.2
2017-Jan-10 19:34N 53°55' E 009°11'2 1.9
2017-Jan-10 18:33N 53°54' E 009°09'1 0.9
2017-Jan-10 17:33N 53°53' E 009°10'1212.4
2017-Jan-10 16:34N 53°45' E 009°25'1515.0
2017-Jan-10 15:33N 53°34' E 009°43'7 7.2
2017-Jan-10 14:33N 53°32' E 009°55'0 0.0
2017-Jan-10 13:33N 53°32' E 009°55'0 0.0
2017-Jan-10 12:33N 53°32' E 009°55'  
Track history (hours):
 
Tides and Currents Weather Stations Pressure Air Temp Water Temp Dewpoint Dewpoint Depression Visibility Wind Speed Wind Dir Waves Ship Positions

Fesco Vladimir

Last reported at 2017-Jan-20 11:33 UTC. Time now 2017-Jan-20 11:52 UTC.
Position N 52°59' E 004°03'.

Length 184 m; draft 10.2 m.

Type: Ship (hazmat cat A). MMSI: 209777000.

Date/timePositionNaut miles runAvg speedWind from/ knotsBaromVisibWave heightAir tempDewpointWater temp
2017-Jan-20 11:33N 52°59' E 004°03'1514.8
2017-Jan-20 10:34N 53°08' E 004°22'1413.5
2017-Jan-20 09:33N 53°21' E 004°31'1313.3
2017-Jan-20 08:33N 53°33' E 004°38'1413.9
2017-Jan-20 07:33N 53°47' E 004°46'1414.3
2017-Jan-20 06:33N 53°60' E 004°54'1514.8
2017-Jan-20 05:34N 54°14' E 005°04'28114.8
2017-Jan-19 10:33N 57°48' E 010°27'1312.9
2017-Jan-19 09:33N 57°45' E 010°50'1414.1
2017-Jan-19 08:33N 57°36' E 011°10'1414.4
2017-Jan-19 07:33N 57°25' E 011°28'1514.6
2017-Jan-19 06:33N 57°11' E 011°37'1715.1
2017-Jan-19 05:24N 56°55' E 011°47'1214.5
2017-Jan-19 04:33N 56°43' E 011°51'4715.6
2017-Jan-19 01:32N 56°03' E 011°07'4213.9
2017-Jan-18 22:32N 55°21' E 011°02'1515.1
2017-Jan-18 21:33N 55°06' E 011°03'1615.5
2017-Jan-18 20:33N 54°52' E 010°53'1413.8
2017-Jan-18 19:33N 54°39' E 011°02'1616.1
2017-Jan-18 18:33N 54°32' E 011°27'1616.3
2017-Jan-18 17:33N 54°26' E 011°53'1413.5
2017-Jan-18 16:33N 54°32' E 012°14'1515.3
2017-Jan-18 15:33N 54°43' E 012°31'3515.7
2017-Jan-18 13:19N 54°57' E 013°28'1215.8
2017-Jan-18 12:33N 55°01' E 013°47'1514.9
2017-Jan-18 11:33N 55°08' E 014°10'1616.1
2017-Jan-18 10:33N 55°20' E 014°28'1615.6
2017-Jan-18 09:33N 55°31' E 014°49'1615.9
2017-Jan-18 08:33N 55°39' E 015°13'33914.6
2017-Jan-17 09:23N 59°33' E 022°51'1315.5
2017-Jan-17 08:33N 59°36' E 023°16'1615.9
2017-Jan-17 07:34N 59°41' E 023°46'1615.6
2017-Jan-17 06:33N 59°46' E 024°15'6315.5
2017-Jan-17 02:29N 59°59' E 026°18'1415.2
2017-Jan-17 01:34N 60°01' E 026°46'1514.6
2017-Jan-17 00:33N 60°03' E 027°15'1615.7
2017-Jan-16 23:34N 60°11' E 027°42'1515.1
2017-Jan-16 22:33N 60°09' E 028°12'1414.5
2017-Jan-16 21:34N 60°03' E 028°38'1312.9
2017-Jan-16 20:33N 60°02' E 029°04'1413.5
2017-Jan-16 19:33N 60°01' E 029°31'7 7.2
2017-Jan-16 18:33N 59°59' E 029°45'3 2.6
2017-Jan-16 17:31N 59°56' E 029°42'0 0.0
2017-Jan-16 16:31N 59°56' E 029°42'0 0.0
2017-Jan-16 15:31N 59°56' E 029°42'0 0.0
2017-Jan-16 14:31N 59°56' E 029°42'0 0.0
2017-Jan-16 13:31N 59°56' E 029°42'0 0.0
2017-Jan-16 12:31N 59°56' E 029°42'0 0.0
2017-Jan-16 11:31N 59°56' E 029°42'0 0.0
2017-Jan-16 10:31N 59°56' E 029°42'0 0.0
2017-Jan-16 09:31N 59°56' E 029°42'0 0.0
2017-Jan-16 08:31N 59°56' E 029°42'0 0.0
2017-Jan-16 07:31N 59°56' E 029°42'0 0.0
2017-Jan-16 06:31N 59°56' E 029°42'0 0.0
2017-Jan-16 05:31N 59°56' E 029°42'0 0.0
2017-Jan-16 04:31N 59°56' E 029°42'0 0.0
2017-Jan-16 03:31N 59°56' E 029°42'0 0.0
2017-Jan-16 02:31N 59°56' E 029°42'0 0.0
2017-Jan-16 01:32N 59°56' E 029°42'0 0.0
2017-Jan-16 00:33N 59°56' E 029°42'1 1.4
2017-Jan-15 23:33N 59°57' E 029°44'2 1.9
2017-Jan-15 22:33N 59°58' E 029°47'1111.0
2017-Jan-15 21:34N 59°54' E 030°08'3 2.8
2017-Jan-15 20:32N 59°52' E 030°12'0 0.0
2017-Jan-15 19:32N 59°52' E 030°12'0 0.0
2017-Jan-15 18:32N 59°52' E 030°12'0 0.0
2017-Jan-15 17:29N 59°52' E 030°12'0 0.0
2017-Jan-15 16:32N 59°52' E 030°12'0 0.0
2017-Jan-15 15:32N 59°52' E 030°12'0 0.0
2017-Jan-15 14:32N 59°52' E 030°12'0 0.0
2017-Jan-15 13:32N 59°52' E 030°12'0 0.0
2017-Jan-15 12:32N 59°52' E 030°12'0 0.0
2017-Jan-15 11:32N 59°52' E 030°12'0 0.0
2017-Jan-15 10:32N 59°52' E 030°12'0 0.0
2017-Jan-15 09:32N 59°52' E 030°12'0 0.0
2017-Jan-15 08:32N 59°52' E 030°12'1 0.8
2017-Jan-15 07:33N 59°53' E 030°11'0 0.0
2017-Jan-15 06:30N 59°53' E 030°11'0 0.0
2017-Jan-15 05:33N 59°53' E 030°11'0 0.0
2017-Jan-15 04:33N 59°53' E 030°11'0 0.0
2017-Jan-15 03:33N 59°53' E 030°11'0 0.0
2017-Jan-15 02:33N 59°53' E 030°11'0 0.0
2017-Jan-15 01:33N 59°53' E 030°11'0 0.0
2017-Jan-15 00:33N 59°53' E 030°11'0 0.0
2017-Jan-14 23:33N 59°53' E 030°11'0 0.0
2017-Jan-14 22:33N 59°53' E 030°11'0 0.0
2017-Jan-14 21:33N 59°53' E 030°11'0 0.0
2017-Jan-14 20:33N 59°53' E 030°11'0 0.0
2017-Jan-14 19:33N 59°53' E 030°11'0 0.0
2017-Jan-14 18:33N 59°53' E 030°11'0 0.0
2017-Jan-14 17:33N 59°53' E 030°11'0 0.0
2017-Jan-14 16:33N 59°53' E 030°11'0 0.0
2017-Jan-14 15:33N 59°53' E 030°11'0 0.0
2017-Jan-14 14:33N 59°53' E 030°11'0 0.0
2017-Jan-14 13:33N 59°53' E 030°11'0 0.0
2017-Jan-14 12:33N 59°53' E 030°11'0 0.0
2017-Jan-14 11:33N 59°53' E 030°11'0 0.0
2017-Jan-14 10:33N 59°53' E 030°11'0 0.0
2017-Jan-14 09:33N 59°53' E 030°11'0 0.0
2017-Jan-14 08:33N 59°53' E 030°11'0 0.0
2017-Jan-14 07:33N 59°53' E 030°11'0 0.0
2017-Jan-14 06:33N 59°53' E 030°11'5 4.8
2017-Jan-14 05:33N 59°55' E 030°03'10 9.8
2017-Jan-14 04:33N 59°59' E 029°45'7 6.4
2017-Jan-14 03:31N 60°01' E 029°32'21 5.2
2017-Jan-13 23:33N 60°02' E 028°51'9 8.6
2017-Jan-13 22:33N 59°58' E 028°35'1212.5
2017-Jan-13 21:33N 59°47' E 028°25'6 6.1
2017-Jan-13 20:32N 59°40' E 028°24'0 0.0
2017-Jan-13 19:32N 59°40' E 028°24'0 0.0
2017-Jan-13 18:32N 59°40' E 028°24'0 0.0
2017-Jan-13 17:32N 59°40' E 028°24'0 0.0
2017-Jan-13 16:32N 59°40' E 028°24'0 0.0
2017-Jan-13 15:32N 59°40' E 028°24'0 0.0
2017-Jan-13 14:32N 59°40' E 028°24'0 0.0
2017-Jan-13 13:32N 59°40' E 028°24'0 0.4
2017-Jan-13 12:33N 59°41' E 028°24'11 8.1
2017-Jan-13 11:12N 59°52' E 028°27'610.0
2017-Jan-13 10:33N 59°57' E 028°34'10 9.6
2017-Jan-13 09:33N 60°04' E 028°22'1212.2
2017-Jan-13 08:33N 60°09' E 027°59'1111.4
2017-Jan-13 07:33N 60°08' E 027°36'1211.8
2017-Jan-13 06:33N 60°01' E 027°16'1212.0
2017-Jan-13 05:33N 59°59' E 026°53'1413.9
2017-Jan-13 04:33N 59°58' E 026°25'7314.1
2017-Jan-12 23:23N 59°40' E 024°05'1214.1
2017-Jan-12 22:33N 59°36' E 023°43'1414.0
2017-Jan-12 21:33N 59°31' E 023°17'1613.7
2017-Jan-12 20:24N 59°26' E 022°47'34514.3
2017-Jan-11 20:14N 55°30' E 015°01'1015.2
2017-Jan-11 19:34N 55°25' E 014°46'1514.7
2017-Jan-11 18:34N 55°14' E 014°28'1514.6
2017-Jan-11 17:33N 55°02' E 014°12'7214.4
2017-Jan-11 12:33N 54°33' E 012°18'1211.8
2017-Jan-11 11:33N 54°25' E 012°04'1611.9
2017-Jan-11 10:11N 54°28' E 011°37'711.3
2017-Jan-11 09:33N 54°31' E 011°26'1211.7
2017-Jan-11 08:33N 54°35' E 011°07'1313.3
2017-Jan-11 07:33N 54°34' E 010°44'46 6.3
2017-Jan-11 00:16N 54°13' E 009°35'5 6.6
2017-Jan-10 23:32N 54°11' E 009°28'7 6.0
2017-Jan-10 22:23N 54°06' E 009°20'3 4.2
2017-Jan-10 21:33N 54°02' E 009°18'4 3.5
2017-Jan-10 20:34N 53°59' E 009°17'5 5.2
2017-Jan-10 19:34N 53°55' E 009°11'2 1.9
2017-Jan-10 18:33N 53°54' E 009°09'1 0.9
2017-Jan-10 17:33N 53°53' E 009°10'1212.4
2017-Jan-10 16:34N 53°45' E 009°25'1515.0
2017-Jan-10 15:33N 53°34' E 009°43'7 7.2
2017-Jan-10 14:33N 53°32' E 009°55'0 0.0
2017-Jan-10 13:33N 53°32' E 009°55'0 0.0
2017-Jan-10 12:33N 53°32' E 009°55'  

Dump ship's entire track history